Time;durP1;ratioP1;P1;durP2;ratioP2;P2;SDS_P1;SDS_P2;PMS_P1;PMS_P2;Temp;Humidity;BMP_temperature;BMP_pressure;BME280_temperature;BME280_humidity;BME280_pressure;Samples;Min_cycle;Max_cycle;Signal;HPM_P1;HPM_P2
2023/05/27 00:00:52;;;;;;;15.80;4.85;;;;;;;10.73;77.95;103034.13;4995790;28;20050;-72
2023/05/27 00:03:17;;;;;;;17.60;4.85;;;;;;;10.63;78.09;103035.06;4997764;28;20042;-72
2023/05/27 00:05:43;;;;;;;13.68;3.97;;;;;;;10.59;78.23;103037.69;4996960;28;20049;-72
2023/05/27 00:08:08;;;;;;;21.45;5.35;;;;;;;10.60;77.74;103039.44;4991715;28;20030;-72
2023/05/27 00:10:34;;;;;;;18.90;4.50;;;;;;;10.55;77.80;103035.09;4997987;28;20057;-72
2023/05/27 00:12:59;;;;;;;16.80;4.60;;;;;;;10.59;77.78;103029.81;5001081;28;20349;-72
2023/05/27 00:15:26;;;;;;;13.15;4.22;;;;;;;10.59;77.49;103022.84;5000596;28;20045;-72
2023/05/27 00:17:52;;;;;;;14.40;4.18;;;;;;;10.56;78.01;103028.97;5001028;28;20042;-72
2023/05/27 00:20:17;;;;;;;16.98;4.03;;;;;;;10.55;77.79;103026.34;4993884;28;20081;-72
2023/05/27 00:22:43;;;;;;;14.77;3.80;;;;;;;10.53;77.73;103030.72;5000493;28;20245;-72
2023/05/27 00:25:08;;;;;;;14.73;3.90;;;;;;;10.49;78.09;103029.88;5000169;28;20038;-72
2023/05/27 00:27:34;;;;;;;15.43;3.88;;;;;;;10.48;78.27;103024.66;5001287;28;20053;-72
2023/05/27 00:30:00;;;;;;;10.45;3.80;;;;;;;10.46;77.72;103022.06;4997258;28;20043;-72
2023/05/27 00:32:25;;;;;;;14.63;3.70;;;;;;;10.45;78.08;103009.81;4995447;28;20049;-72
2023/05/27 00:34:51;;;;;;;17.30;4.20;;;;;;;10.34;78.21;103009.88;4999519;28;20053;-72
2023/05/27 00:37:16;;;;;;;16.35;3.92;;;;;;;10.30;78.93;103012.50;4995627;28;20334;-72
2023/05/27 00:39:41;;;;;;;14.68;4.07;;;;;;;10.29;78.64;103009.00;5001491;28;20045;-72
2023/05/27 00:42:07;;;;;;;13.68;3.85;;;;;;;10.31;78.62;103002.03;4994700;28;20100;-72
2023/05/27 00:44:33;;;;;;;17.08;3.80;;;;;;;10.22;78.45;103003.78;5001458;28;20044;-72
2023/05/27 00:46:58;;;;;;;14.50;3.63;;;;;;;10.23;77.99;103005.56;4994739;28;20249;-72
2023/05/27 00:49:26;;;;;;;11.38;3.85;;;;;;;10.19;77.98;103005.56;5001096;28;20096;-72
2023/05/27 00:51:52;;;;;;;15.25;3.78;;;;;;;10.18;78.21;103013.41;4995201;28;20225;-71
2023/05/27 00:54:17;;;;;;;13.85;3.72;;;;;;;10.21;78.20;103008.16;5001266;28;20038;-71
2023/05/27 00:56:44;;;;;;;13.60;3.92;;;;;;;10.20;77.91;103022.13;4999484;28;20026;-71
2023/05/27 00:59:09;;;;;;;16.30;3.88;;;;;;;10.12;78.04;103026.53;5000738;28;20038;-71
2023/05/27 01:01:36;;;;;;;7.80;2.80;;;;;;;10.11;78.19;103022.16;4995453;28;20100;-71
2023/05/27 01:04:03;;;;;;;13.60;3.40;;;;;;;10.09;78.67;103016.94;5000530;28;20042;-71
2023/05/27 01:06:40;;;;;;;12.45;3.42;;;;;;;10.10;78.16;103016.06;4998834;28;20045;-71
2023/05/27 01:09:24;;;;;;;17.08;3.60;;;;;;;10.13;78.00;103009.94;5000101;28;20104;-71
2023/05/27 01:12:02;;;;;;;10.52;3.30;;;;;;;9.99;78.41;103004.78;4997028;28;20061;-71
2023/05/27 01:14:30;;;;;;;23.08;4.03;;;;;;;10.02;78.19;103009.97;5000969;28;20097;-71
2023/05/27 01:17:00;;;;;;;11.15;3.08;;;;;;;9.84;78.56;103003.09;4997241;28;20042;-71
2023/05/27 01:19:40;;;;;;;14.75;3.33;;;;;;;9.88;78.63;103006.56;5000558;28;20341;-71
2023/05/27 01:22:07;;;;;;;11.98;3.63;;;;;;;9.92;78.36;103003.91;4998755;28;20232;-71
2023/05/27 01:24:33;;;;;;;14.00;3.72;;;;;;;9.97;78.55;103002.16;5000564;28;20042;-71
2023/05/27 01:27:01;;;;;;;14.20;3.80;;;;;;;9.99;78.24;103002.16;4997329;28;20034;-71
2023/05/27 01:29:27;;;;;;;13.43;3.37;;;;;;;9.97;78.63;102996.06;5000324;28;20274;-71
2023/05/27 01:32:06;;;;;;;16.98;3.35;;;;;;;9.80;79.05;102990.84;4997140;28;20042;-71
2023/05/27 01:34:41;;;;;;;10.30;3.38;;;;;;;9.86;79.14;102988.25;4981409;28;20386;-71
2023/05/27 01:37:12;;;;;;;15.05;4.20;;;;;;;9.73;78.83;103000.50;4991641;28;20097;-71
2023/05/27 01:39:39;;;;;;;9.48;3.33;;;;;;;9.72;79.36;102997.88;5000659;28;20080;-71
2023/05/27 01:42:06;;;;;;;11.18;3.58;;;;;;;9.64;79.76;102997.91;4997580;28;20225;-71
2023/05/27 01:44:32;;;;;;;12.35;3.17;;;;;;;9.69;79.55;103000.50;5000284;28;20035;-71
2023/05/27 01:47:01;;;;;;;13.40;3.90;;;;;;;9.65;79.52;102998.78;4997870;28;20036;-71
2023/05/27 01:49:27;;;;;;;10.73;3.38;;;;;;;9.58;80.16;103003.13;5000449;28;20037;-71
2023/05/27 01:51:52;;;;;;;11.85;3.28;;;;;;;9.41;80.71;102996.19;4997784;28;20034;-71
2023/05/27 01:54:18;;;;;;;13.40;2.88;;;;;;;9.53;80.39;103000.53;4999887;28;20345;-71
2023/05/27 01:56:43;;;;;;;11.85;2.97;;;;;;;9.48;80.95;102999.66;4999207;28;20031;-71
2023/05/27 01:59:08;;;;;;;13.70;3.50;;;;;;;9.54;80.24;103001.41;4999648;28;20057;-71
2023/05/27 02:01:34;;;;;;;16.88;3.47;;;;;;;9.43;80.97;103006.66;4998340;28;20061;-71
2023/05/27 02:03:59;;;;;;;15.50;3.67;;;;;;;9.43;80.78;103006.66;4981761;28;20080;-71
2023/05/27 02:06:26;;;;;;;13.98;3.30;;;;;;;9.53;80.35;103003.16;4998869;28;20081;-71
2023/05/27 02:08:51;;;;;;;16.27;3.45;;;;;;;9.44;80.91;102989.19;4999248;28;20089;-71
2023/05/27 02:11:17;;;;;;;19.08;3.88;;;;;;;9.40;80.77;103006.66;4998715;28;20054;-71
2023/05/27 02:13:42;;;;;;;12.88;3.55;;;;;;;9.39;81.46;102997.94;4980315;28;20046;-71
2023/05/27 02:16:08;;;;;;;10.77;3.78;;;;;;;9.43;81.11;102997.94;4979632;28;20050;-71
2023/05/27 02:18:34;;;;;;;15.63;4.10;;;;;;;9.41;80.84;103004.03;4998959;28;20073;-71
2023/05/27 02:21:05;;;;;;;16.67;3.67;;;;;;;9.41;80.86;103000.56;4999118;28;20042;-71
2023/05/27 02:23:31;;;;;;;11.45;3.33;;;;;;;9.32;81.69;103006.66;4981735;28;20368;-72
2023/05/27 02:25:56;;;;;;;14.48;4.32;;;;;;;9.33;81.59;103002.28;4979851;28;20035;-72
2023/05/27 02:28:21;;;;;;;6.28;2.70;;;;;;;9.35;81.54;103000.53;4995907;28;20088;-72
2023/05/27 02:30:47;;;;;;;12.30;3.13;;;;;;;9.34;81.86;103002.28;4998210;28;20050;-72
2023/05/27 02:33:12;;;;;;;9.32;2.88;;;;;;;9.37;81.56;103001.44;4984403;28;20081;-72
2023/05/27 02:35:38;;;;;;;11.43;3.15;;;;;;;9.33;81.76;103000.56;4979619;28;20042;-72
2023/05/27 02:38:03;;;;;;;10.30;3.08;;;;;;;9.30;81.81;103008.41;4979781;28;20074;-72
2023/05/27 02:40:29;;;;;;;12.50;3.80;;;;;;;9.35;81.79;102996.22;4979997;28;20042;-72
2023/05/27 02:42:58;;;;;;;15.48;3.30;;;;;;;9.29;81.76;103004.03;4982541;28;20042;-72
2023/05/27 02:45:23;;;;;;;13.75;3.30;;;;;;;9.29;82.48;103000.56;4979588;28;20042;-72
2023/05/27 02:47:49;;;;;;;10.50;3.20;;;;;;;9.36;82.41;103000.53;4980259;28;20364;-72
2023/05/27 02:50:14;;;;;;;10.63;3.50;;;;;;;9.45;81.89;103001.41;4979402;28;20045;-72
2023/05/27 02:52:40;;;;;;;11.15;3.05;;;;;;;9.41;81.73;103004.03;4984368;28;20051;-72
2023/05/27 02:55:07;;;;;;;11.30;2.75;;;;;;;9.41;81.85;103000.56;4979034;28;20413;-72
2023/05/27 02:57:32;;;;;;;11.02;3.60;;;;;;;9.21;82.41;103001.44;4984863;28;20121;-71
2023/05/27 02:59:58;;;;;;;7.20;2.72;;;;;;;9.34;82.13;102998.81;4978819;28;20330;-71
2023/05/27 03:02:23;;;;;;;14.70;3.80;;;;;;;9.39;81.76;102992.69;4981634;28;20109;-71
2023/05/27 03:04:49;;;;;;;11.35;3.10;;;;;;;9.43;81.39;102993.56;4979053;28;20061;-71
2023/05/27 03:07:14;;;;;;;8.88;3.20;;;;;;;9.45;81.74;102993.56;4981892;28;20356;-71
2023/05/27 03:09:40;;;;;;;6.88;2.90;;;;;;;9.34;81.36;102984.00;4979177;28;20058;-71
2023/05/27 03:12:05;;;;;;;11.25;3.20;;;;;;;9.31;82.01;102989.22;4994654;28;20036;-71
2023/05/27 03:14:31;;;;;;;11.07;3.70;;;;;;;9.31;82.33;102988.34;4979223;28;20085;-71
2023/05/27 03:16:57;;;;;;;7.53;2.63;;;;;;;9.35;81.99;102993.59;4983898;28;20041;-71
2023/05/27 03:19:22;;;;;;;8.63;3.20;;;;;;;9.37;81.96;102988.38;4979870;28;20046;-71
2023/05/27 03:21:48;;;;;;;17.05;3.45;;;;;;;9.29;82.04;102990.09;4979444;28;20050;-71
2023/05/27 03:24:13;;;;;;;9.52;2.95;;;;;;;9.35;81.88;102990.06;4980574;28;20061;-71
2023/05/27 03:26:39;;;;;;;9.77;3.08;;;;;;;9.26;82.21;102985.75;4978764;28;20106;-71
2023/05/27 03:29:05;;;;;;;8.23;3.38;;;;;;;9.20;82.39;102981.41;4994686;28;20438;-71
2023/05/27 03:31:30;;;;;;;16.13;3.53;;;;;;;9.25;81.98;102986.63;4998387;28;20046;-72
2023/05/27 03:33:56;;;;;;;11.07;3.20;;;;;;;9.10;82.88;102992.72;4996460;28;20057;-72
2023/05/27 03:36:21;;;;;;;15.95;3.60;;;;;;;9.03;82.95;102993.59;4998325;28;20332;-72
2023/05/27 03:38:47;;;;;;;11.85;2.83;;;;;;;9.10;83.24;102990.13;4986246;28;20053;-71
2023/05/27 03:41:12;;;;;;;15.07;4.30;;;;;;;9.07;83.35;102984.00;4980100;28;20070;-71
2023/05/27 03:43:38;;;;;;;13.02;3.38;;;;;;;9.19;83.06;102986.63;4993125;28;20158;-71
2023/05/27 03:46:03;;;;;;;17.55;3.55;;;;;;;9.15;83.03;102982.25;4981161;28;20046;-71
2023/05/27 03:48:29;;;;;;;11.63;3.05;;;;;;;9.22;82.76;102984.00;4991556;28;20210;-71
2023/05/27 03:50:54;;;;;;;10.60;3.20;;;;;;;9.17;83.08;102980.53;4996053;28;20046;-71
2023/05/27 03:53:20;;;;;;;12.75;3.70;;;;;;;9.18;83.06;102979.66;4998137;28;20049;-71
2023/05/27 03:55:45;;;;;;;6.75;3.10;;;;;;;9.13;83.11;102981.38;4996939;28;20372;-71
2023/05/27 03:58:13;;;;;;;14.63;3.50;;;;;;;9.08;83.55;102978.78;4997975;28;20057;-71
2023/05/27 04:00:39;;;;;;;15.23;3.45;;;;;;;8.95;83.61;102967.47;4969620;28;20042;-71
2023/05/27 04:03:05;;;;;;;8.85;3.13;;;;;;;8.98;83.63;102971.81;4987306;28;20034;-71
2023/05/27 04:05:31;;;;;;;8.75;3.08;;;;;;;8.97;83.79;102970.94;4988704;28;20068;-71
2023/05/27 04:07:56;;;;;;;9.40;3.30;;;;;;;8.97;83.59;102976.19;4985212;28;20034;-71
2023/05/27 04:10:22;;;;;;;12.18;3.22;;;;;;;9.05;83.18;102970.06;4985562;28;20081;-71
2023/05/27 04:12:47;;;;;;;8.35;3.45;;;;;;;9.06;83.30;102966.56;4997539;28;20053;-71
2023/05/27 04:15:12;;;;;;;10.07;3.08;;;;;;;9.09;83.65;102962.22;4992321;28;20045;-71
2023/05/27 04:17:38;;;;;;;13.70;3.28;;;;;;;9.07;83.19;102956.13;4983419;28;20034;-71
2023/05/27 04:20:13;;;;;;;8.43;2.85;;;;;;;9.05;83.95;102963.09;4993503;28;20289;-71
2023/05/27 04:22:38;;;;;;;10.30;3.10;;;;;;;9.17;83.72;102967.47;4982991;28;20037;-71
2023/05/27 04:25:05;;;;;;;10.45;3.03;;;;;;;9.16;83.29;102965.72;4984103;28;20113;-71
2023/05/27 04:27:31;;;;;;;12.50;3.42;;;;;;;9.05;83.41;102965.72;4997708;28;20045;-71
2023/05/27 04:29:56;;;;;;;10.70;3.38;;;;;;;9.11;83.78;102968.31;4995342;28;20046;-71
2023/05/27 04:32:25;;;;;;;15.75;3.22;;;;;;;9.23;83.46;102973.53;4980143;28;20046;-71
2023/05/27 04:34:50;;;;;;;8.52;3.17;;;;;;;9.20;83.84;102977.91;4997223;28;20352;-71
2023/05/27 04:37:17;;;;;;;13.82;3.13;;;;;;;9.12;83.54;102970.06;4978615;28;20370;-71
2023/05/27 04:39:45;;;;;;;11.48;3.15;;;;;;;9.09;84.15;102977.03;4978360;28;20368;-71
2023/05/27 04:42:12;;;;;;;17.63;3.80;;;;;;;9.00;84.10;102977.91;4996166;28;20046;-71
2023/05/27 04:44:38;;;;;;;13.63;3.65;;;;;;;9.10;83.98;102974.44;4997248;28;20073;-71
2023/05/27 04:47:04;;;;;;;10.00;3.60;;;;;;;9.27;83.55;102963.94;4980499;28;20110;-71
2023/05/27 04:49:30;;;;;;;13.80;3.60;;;;;;;9.20;83.55;102976.19;4996280;28;20073;-71
2023/05/27 04:51:56;;;;;;;8.35;3.20;;;;;;;9.18;84.13;102979.66;4981444;28;20038;-71
2023/05/27 04:54:22;;;;;;;7.88;3.00;;;;;;;9.22;83.92;102981.38;4995545;28;20097;-71
2023/05/27 04:56:51;;;;;;;13.43;3.72;;;;;;;9.15;84.23;102979.63;4998912;28;20049;-71
2023/05/27 04:59:18;;;;;;;12.25;3.03;;;;;;;9.18;84.05;102975.28;5001339;28;20049;-71
2023/05/27 05:02:09;;;;;;;14.50;3.50;;;;;;;9.14;83.93;102973.56;4988125;28;20089;-71
2023/05/27 05:04:36;;;;;;;9.18;3.30;;;;;;;9.12;84.26;102971.81;4999336;28;20040;-71
2023/05/27 05:07:03;;;;;;;10.90;3.13;;;;;;;9.09;84.67;102967.44;4997652;28;20050;-71
2023/05/27 05:09:29;;;;;;;16.05;3.60;;;;;;;9.07;84.54;102966.56;5000297;28;20066;-71
2023/05/27 05:11:55;;;;;;;12.65;3.47;;;;;;;9.08;85.64;102964.81;4987008;28;20061;-71
2023/05/27 05:14:20;;;;;;;17.13;3.67;;;;;;;9.09;85.52;102964.84;4996658;28;20054;-71
2023/05/27 05:16:46;;;;;;;13.77;4.15;;;;;;;9.15;85.14;102959.63;4988443;28;20330;-71
2023/05/27 05:19:12;;;;;;;10.35;2.95;;;;;;;9.11;85.56;102957.84;4995294;28;20049;-71
2023/05/27 05:21:37;;;;;;;10.75;3.65;;;;;;;9.15;85.75;102964.84;4997240;28;20038;-71
2023/05/27 05:24:03;;;;;;;11.55;3.58;;;;;;;9.21;85.85;102948.28;5000095;28;20054;-71
2023/05/27 05:26:29;;;;;;;12.23;3.42;;;;;;;9.25;85.47;102947.41;4989279;28;20118;-71
2023/05/27 05:28:55;;;;;;;14.18;3.40;;;;;;;9.30;84.99;102945.66;4991901;28;20188;-71
2023/05/27 05:31:20;;;;;;;15.43;3.65;;;;;;;9.40;84.47;102938.66;4998640;28;20062;-71
2023/05/27 05:33:45;;;;;;;10.82;3.33;;;;;;;9.47;84.82;102944.75;4999790;28;20110;-71
2023/05/27 05:36:11;;;;;;;10.95;2.85;;;;;;;9.44;84.54;102942.13;4994942;28;20041;-71
2023/05/27 05:38:37;;;;;;;13.07;3.95;;;;;;;9.47;84.48;102943.00;4989019;28;20034;-71
2023/05/27 05:41:03;;;;;;;13.52;3.33;;;;;;;9.46;84.84;102946.50;4998021;28;20062;-71
2023/05/27 05:43:28;;;;;;;8.82;3.50;;;;;;;9.48;84.48;102936.00;5000158;28;20371;-71
2023/05/27 05:45:54;;;;;;;11.45;3.95;;;;;;;9.51;84.61;102929.03;4997108;28;20248;-71
2023/05/27 05:48:19;;;;;;;11.55;3.75;;;;;;;9.49;85.01;102932.53;4969748;28;20039;-71
2023/05/27 05:50:45;;;;;;;10.52;3.88;;;;;;;9.55;84.84;102925.53;4999751;28;20061;-71
2023/05/27 05:53:10;;;;;;;15.10;3.75;;;;;;;9.56;84.29;102926.41;4984337;28;20034;-71
2023/05/27 05:55:36;;;;;;;17.00;3.55;;;;;;;9.64;84.06;102932.50;5000149;28;20101;-71
2023/05/27 05:58:02;;;;;;;16.73;3.92;;;;;;;9.68;83.89;102929.00;4984502;28;20037;-71
2023/05/27 06:00:27;;;;;;;14.70;3.80;;;;;;;9.73;83.84;102927.22;4998911;28;20335;-71
2023/05/27 06:02:53;;;;;;;10.68;3.38;;;;;;;9.80;83.81;102931.56;4997032;28;20065;-71
2023/05/27 06:05:18;;;;;;;13.73;3.53;;;;;;;9.82;84.05;102928.06;5000342;28;20046;-71
2023/05/27 06:07:45;;;;;;;14.10;3.78;;;;;;;9.85;83.97;102930.66;4985175;28;20365;-71
2023/05/27 06:10:10;;;;;;;23.77;4.13;;;;;;;9.96;82.88;102923.63;4998925;28;20062;-71
2023/05/27 06:12:36;;;;;;;18.92;3.92;;;;;;;9.99;82.87;102921.88;4987513;28;20314;-71
2023/05/27 06:15:02;;;;;;;13.25;3.53;;;;;;;10.02;82.85;102920.97;4997326;28;20042;-71
2023/05/27 06:17:27;;;;;;;14.38;4.07;;;;;;;9.97;82.73;102910.53;4997916;28;20306;-71
2023/05/27 06:19:53;;;;;;;17.52;3.75;;;;;;;10.04;82.28;102913.13;4999296;28;20065;-71
2023/05/27 06:22:18;;;;;;;12.40;3.50;;;;;;;10.07;82.03;102913.09;4991339;28;20365;-71
2023/05/27 06:24:44;;;;;;;12.63;3.67;;;;;;;10.06;81.67;102912.25;4994706;28;20133;-71
2023/05/27 06:27:10;;;;;;;17.30;3.88;;;;;;;10.12;81.53;102906.09;4992530;28;20038;-71
2023/05/27 06:29:35;;;;;;;9.55;3.22;;;;;;;10.17;82.00;102899.09;4993181;28;20042;-71
2023/05/27 06:32:01;;;;;;;14.07;3.58;;;;;;;10.21;81.95;102889.47;4992904;28;20035;-71
2023/05/27 06:34:26;;;;;;;13.90;3.55;;;;;;;10.27;81.88;102889.44;4991554;28;20077;-71
2023/05/27 06:36:51;;;;;;;16.13;4.47;;;;;;;10.27;81.59;102884.19;4996151;28;20034;-71
2023/05/27 06:39:17;;;;;;;15.88;3.20;;;;;;;10.36;81.97;102882.41;4989963;28;20076;-71
2023/05/27 06:41:43;;;;;;;17.20;4.22;;;;;;;10.42;81.79;102878.84;4998653;28;20052;-71
2023/05/27 06:44:08;;;;;;;16.63;3.92;;;;;;;10.47;80.93;102881.44;4988428;28;20061;-71
2023/05/27 06:46:33;;;;;;;9.98;3.42;;;;;;;10.48;81.46;102885.81;4997301;28;20229;-71
2023/05/27 06:48:59;;;;;;;14.77;3.88;;;;;;;10.46;81.70;102877.97;4997415;28;20056;-71
2023/05/27 06:51:25;;;;;;;17.58;4.38;;;;;;;10.60;80.64;102872.59;4997341;28;20042;-71
2023/05/27 06:53:50;;;;;;;15.00;3.95;;;;;;;10.57;80.06;102876.13;4987934;28;20352;-71
2023/05/27 06:56:16;;;;;;;22.35;4.22;;;;;;;10.64;80.80;102873.44;4999136;28;20042;-71
2023/05/27 06:58:41;;;;;;;19.50;3.95;;;;;;;10.67;80.71;102873.44;4988952;28;20034;-71
2023/05/27 07:01:07;;;;;;;13.32;3.85;;;;;;;10.74;79.98;102872.50;4998127;28;20241;-71
2023/05/27 07:03:33;;;;;;;12.40;3.90;;;;;;;10.75;80.08;102875.13;4993190;28;20109;-71
2023/05/27 07:05:58;;;;;;;16.52;3.90;;;;;;;10.78;80.27;102876.81;4998271;28;20034;-71
2023/05/27 07:08:24;;;;;;;11.40;4.47;;;;;;;10.79;80.28;102875.97;4990150;28;20342;-71
2023/05/27 07:10:50;;;;;;;11.15;4.00;;;;;;;10.86;80.01;102876.75;4985937;28;20203;-71
2023/05/27 07:13:15;;;;;;;20.65;4.35;;;;;;;10.90;79.76;102873.22;4987562;28;20054;-71
2023/05/27 07:15:41;;;;;;;18.45;4.25;;;;;;;10.98;79.84;102868.78;4998773;28;20333;-71
2023/05/27 07:18:06;;;;;;;12.32;4.18;;;;;;;11.05;79.68;102867.81;4993164;28;20041;-71
2023/05/27 07:20:33;;;;;;;17.05;4.32;;;;;;;11.09;79.88;102876.53;4998494;28;20049;-71
2023/05/27 07:22:58;;;;;;;17.40;4.45;;;;;;;11.11;79.57;102867.78;4992220;28;20026;-71
2023/05/27 07:25:24;;;;;;;13.35;4.32;;;;;;;11.21;79.15;102867.69;4995908;28;20053;-71
2023/05/27 07:27:50;;;;;;;21.48;5.07;;;;;;;11.29;78.75;102868.44;4992207;28;20034;-71
2023/05/27 07:30:15;;;;;;;14.60;3.97;;;;;;;11.30;78.38;102868.44;4988311;28;20054;-71
2023/05/27 07:32:41;;;;;;;17.38;4.90;;;;;;;11.34;79.38;102866.66;4987579;28;20044;-71
2023/05/27 07:35:06;;;;;;;12.15;3.97;;;;;;;11.38;77.88;102868.34;4992401;28;20050;-71
2023/05/27 07:37:32;;;;;;;17.65;4.05;;;;;;;11.40;78.37;102865.69;4980570;28;20041;-71
2023/05/27 07:39:57;;;;;;;14.05;4.40;;;;;;;11.46;78.57;102863.00;4990972;28;20046;-71
2023/05/27 07:42:23;;;;;;;15.93;4.32;;;;;;;11.52;78.32;102863.78;4998153;28;20058;-71
2023/05/27 07:44:49;;;;;;;12.98;4.32;;;;;;;11.57;78.21;102852.38;4995178;28;20046;-71
2023/05/27 07:47:15;;;;;;;14.68;4.50;;;;;;;11.65;78.58;102858.41;4997919;28;20333;-71
2023/05/27 07:49:40;;;;;;;19.10;4.82;;;;;;;11.71;77.75;102853.06;4996643;28;20056;-71
2023/05/27 07:52:06;;;;;;;19.58;4.63;;;;;;;11.76;78.10;102853.88;4997171;28;20112;-71
2023/05/27 07:54:31;;;;;;;12.73;4.30;;;;;;;11.81;77.69;102848.56;4992398;28;20053;-71
2023/05/27 07:56:57;;;;;;;10.77;3.83;;;;;;;11.85;77.75;102851.13;4997235;28;20449;-71
2023/05/27 07:59:23;;;;;;;17.38;3.85;;;;;;;11.88;76.86;102852.84;4992157;28;20045;-71
2023/05/27 08:01:49;;;;;;;17.80;4.88;;;;;;;11.92;77.39;102845.84;4997136;28;20229;-71
2023/05/27 08:04:14;;;;;;;17.13;4.28;;;;;;;11.96;76.79;102851.00;4992108;28;20304;-71
2023/05/27 08:06:40;;;;;;;19.05;4.30;;;;;;;11.98;77.79;102840.47;4997524;28;20034;-71
2023/05/27 08:09:07;;;;;;;19.30;5.18;;;;;;;12.10;76.74;102843.78;4991471;28;20062;-71
2023/05/27 08:11:32;;;;;;;17.63;3.95;;;;;;;12.11;76.02;102828.88;4998078;28;20160;-71
2023/05/27 08:13:58;;;;;;;12.20;4.25;;;;;;;12.15;76.09;102829.72;4993494;28;20329;-71
2023/05/27 08:16:23;;;;;;;15.95;4.55;;;;;;;12.18;75.41;102827.91;4983398;28;20264;-71
2023/05/27 08:18:49;;;;;;;12.18;4.13;;;;;;;12.23;75.83;102828.69;4982381;28;20237;-71
2023/05/27 08:21:15;;;;;;;19.48;5.45;;;;;;;12.31;76.00;102835.59;4997801;28;20386;-71
2023/05/27 08:23:40;;;;;;;18.00;4.93;;;;;;;12.32;75.44;102819.81;4993505;28;20038;-71
2023/05/27 08:26:05;;;;;;;19.33;5.07;;;;;;;12.34;75.32;102820.66;4995299;28;20054;-71
2023/05/27 08:28:34;;;;;;;16.30;4.53;;;;;;;12.39;75.06;102810.09;4995122;28;20249;-71
2023/05/27 08:31:00;;;;;;;;;;;;;;;12.47;74.36;102813.44;4999943;28;20101;-71
2023/05/27 08:33:26;;;;;;;20.60;5.35;;;;;;;12.48;74.42;102805.53;4997410;28;20198;-71
2023/05/27 08:35:51;;;;;;;17.65;4.05;;;;;;;12.57;74.90;102807.13;4997786;28;20087;-71
2023/05/27 08:38:17;;;;;;;17.45;4.32;;;;;;;12.65;73.67;102799.09;5000194;28;20065;-71
2023/05/27 08:40:44;;;;;;;15.48;4.45;;;;;;;12.66;73.65;102790.31;4980332;28;20042;-71
2023/05/27 08:43:09;;;;;;;17.02;4.78;;;;;;;12.69;74.04;102785.00;4992771;28;20043;-71
2023/05/27 08:45:36;;;;;;;12.55;5.30;;;;;;;12.76;74.49;102786.63;4999275;28;20042;-71
2023/05/27 08:48:02;;;;;;;14.77;4.13;;;;;;;12.82;74.80;102777.75;4994504;28;20062;-71
2023/05/27 08:50:27;;;;;;;10.90;3.83;;;;;;;12.92;74.31;102781.06;4997762;28;20068;-71
2023/05/27 08:52:54;;;;;;;13.82;4.75;;;;;;;13.00;74.66;102780.00;5000618;28;20046;-71
2023/05/27 08:55:21;;;;;;;17.00;4.95;;;;;;;13.07;73.54;102779.00;4998250;28;20046;-71
2023/05/27 08:57:51;;;;;;;18.80;4.47;;;;;;;13.17;73.52;102770.91;5000706;28;20034;-71
2023/05/27 09:00:17;;;;;;;21.30;5.30;;;;;;;13.25;73.11;102763.72;4998468;28;20326;-71
2023/05/27 09:02:42;;;;;;;14.95;4.68;;;;;;;13.34;73.66;102763.56;5001013;28;20062;-71
2023/05/27 09:05:10;;;;;;;12.75;4.90;;;;;;;13.41;73.04;102762.53;4997898;28;20109;-71
2023/05/27 09:07:37;;;;;;;14.80;4.30;;;;;;;13.42;70.93;102751.13;5000872;28;20042;-71
2023/05/27 09:10:03;;;;;;;17.45;4.57;;;;;;;13.50;71.85;102750.94;4998844;28;20121;-71
2023/05/27 09:12:30;;;;;;;13.43;4.47;;;;;;;13.54;71.30;102747.34;5000940;28;20121;-72
2023/05/27 09:14:56;;;;;;;15.93;4.72;;;;;;;13.60;71.36;102755.06;4995057;28;20109;-72
2023/05/27 09:17:28;;;;;;;23.88;5.28;;;;;;;13.62;71.53;102755.94;4981431;28;20082;-71
2023/05/27 09:19:54;;;;;;;22.10;4.78;;;;;;;13.64;70.80;102750.59;4989314;28;20321;-71
2023/05/27 09:22:32;;;;;;;19.20;5.00;;;;;;;13.62;69.50;102749.78;5001144;28;20034;-71
2023/05/27 09:24:57;;;;;;;18.30;5.13;;;;;;;13.66;70.43;102743.56;4998116;28;20104;-72
2023/05/27 09:27:32;;;;;;;13.35;4.40;;;;;;;13.82;71.10;102752.84;5000819;28;20062;-72
2023/05/27 09:30:08;;;;;;;19.63;4.68;;;;;;;13.90;70.19;102754.38;4994669;28;20046;-72
2023/05/27 09:32:34;;;;;;;30.08;5.72;;;;;;;13.91;70.70;102741.19;5000646;28;20041;-72
2023/05/27 09:35:01;;;;;;;14.90;4.60;;;;;;;14.00;71.06;102738.31;4981206;28;20050;-72
2023/05/27 09:37:34;;;;;;;11.25;4.53;;;;;;;14.05;70.23;102742.63;5000554;28;20045;-72
2023/05/27 09:40:12;;;;;;;13.32;4.43;;;;;;;14.07;69.39;102732.91;4993835;28;20413;-72
2023/05/27 09:42:41;;;;;;;15.03;4.57;;;;;;;14.08;68.66;102732.00;4981399;28;20038;-71
2023/05/27 09:45:11;;;;;;;12.88;4.18;;;;;;;14.15;70.49;102737.09;4987964;28;20106;-72
2023/05/27 09:47:48;;;;;;;13.40;4.10;;;;;;;14.29;69.87;102736.72;4980942;28;20038;-72
2023/05/27 09:50:17;;;;;;;12.07;4.80;;;;;;;14.31;68.49;102739.31;4986003;28;20039;-69
2023/05/27 09:52:45;;;;;;;;;;;;;;;14.30;68.36;102730.56;4981730;28;20338;-69
2023/05/27 09:55:12;;;;;;;14.55;4.38;;;;;;;14.34;68.59;102728.72;4992262;28;19913;-69
2023/05/27 09:57:39;;;;;;;16.13;5.13;;;;;;;14.39;69.91;102730.31;5000474;28;20060;-69
2023/05/27 10:00:15;;;;;;;16.88;4.97;;;;;;;14.52;68.97;102728.22;4995743;28;20038;-69
2023/05/27 10:02:48;;;;;;;14.82;5.53;;;;;;;14.57;68.95;102721.06;5000112;28;20038;-69
2023/05/27 10:05:16;;;;;;;14.57;4.88;;;;;;;14.66;67.98;102725.25;4996054;28;20310;-69
2023/05/27 10:07:43;;;;;;;19.70;5.32;;;;;;;14.67;67.27;102726.94;4999387;28;20206;-69
2023/05/27 10:10:16;;;;;;;18.23;4.85;;;;;;;14.72;68.25;102730.34;4994660;28;20109;-69
2023/05/27 10:12:44;;;;;;;17.98;5.10;;;;;;;14.75;66.64;102717.06;4999977;28;20113;-69
2023/05/27 10:15:20;;;;;;;15.20;4.97;;;;;;;14.81;66.92;102713.38;4993366;28;20039;-69
2023/05/27 10:17:53;;;;;;;24.10;5.18;;;;;;;14.86;65.90;102707.97;4981579;28;20106;-69
2023/05/27 10:20:39;;;;;;;13.80;5.07;;;;;;;14.94;66.57;102703.34;4990042;28;20049;-71
2023/05/27 10:23:12;;;;;;;15.00;4.97;;;;;;;15.09;66.56;102704.66;4998733;28;20065;-72
2023/05/27 10:25:40;;;;;;;13.23;4.65;;;;;;;15.16;65.35;102698.28;4996601;28;20038;-72
2023/05/27 10:28:05;;;;;;;14.20;5.30;;;;;;;15.21;64.87;102687.56;4998880;28;20049;-72
2023/05/27 10:30:45;;;;;;;14.07;4.85;;;;;;;15.27;65.35;102690.03;4997323;28;20061;-72
2023/05/27 10:33:11;;;;;;;13.55;5.22;;;;;;;15.34;65.29;102687.16;4996885;28;20034;-72
2023/05/27 10:35:41;;;;;;;16.17;4.88;;;;;;;15.41;64.31;102686.94;4997739;28;20137;-72
2023/05/27 10:38:17;;;;;;;15.15;5.35;;;;;;;15.46;64.68;102682.38;4998847;28;20045;-72
2023/05/27 10:40:45;;;;;;;15.45;5.35;;;;;;;15.52;65.13;102683.06;4997195;28;20042;-72
2023/05/27 10:43:18;;;;;;;13.50;4.95;;;;;;;15.59;65.30;102672.28;4998572;28;20046;-72
2023/05/27 10:45:43;;;;;;;14.68;4.88;;;;;;;15.68;65.47;102667.59;4997417;28;20034;-72
2023/05/27 10:48:17;;;;;;;10.63;5.07;;;;;;;15.84;65.13;102661.81;4980783;28;20065;-72
2023/05/27 10:50:53;;;;;;;21.52;5.00;;;;;;;15.87;63.35;102657.28;4998809;28;20052;-72
2023/05/27 10:53:21;;;;;;;14.88;5.47;;;;;;;15.92;62.96;102654.50;4999062;28;20069;-72
2023/05/27 10:55:51;;;;;;;16.10;5.13;;;;;;;15.98;63.25;102648.16;4997143;28;20061;-72
2023/05/27 10:58:17;;;;;;;16.75;5.38;;;;;;;16.04;61.96;102648.78;4999176;28;20272;-72
2023/05/27 11:00:53;;;;;;;15.15;5.20;;;;;;;16.10;62.74;102648.56;4996524;28;20066;-72
2023/05/27 11:03:29;;;;;;;19.05;5.38;;;;;;;16.16;61.10;102644.84;4999056;28;20037;-72
2023/05/27 11:06:05;;;;;;;13.73;4.72;;;;;;;16.17;60.40;102641.31;4989596;28;20348;-72
2023/05/27 11:08:32;;;;;;;20.15;5.50;;;;;;;16.20;60.82;102635.03;4979516;28;20042;-72
2023/05/27 11:11:05;;;;;;;18.17;4.85;;;;;;;16.26;60.86;102640.97;4986134;28;20061;-72
2023/05/27 11:13:36;;;;;;;14.80;4.85;;;;;;;16.26;58.16;102632.16;4980653;28;20357;-72
2023/05/27 11:16:04;;;;;;;12.15;5.32;;;;;;;16.28;58.96;102632.97;4978999;28;20073;-72
2023/05/27 11:18:37;;;;;;;14.60;4.10;;;;;;;16.33;59.70;102625.72;4998914;28;20042;-72
2023/05/27 11:21:03;;;;;;;11.68;4.80;;;;;;;16.35;61.02;102626.53;4989076;28;20030;-72